Nuno Santos

Chefscout - Casa Pia
17 Jul 2027
Samstag
Verarbeitung

Persönlichkeit

Anpassungsfähigkeit (6) Ehrgeiz (18) Kontroverse (5) Loyalität (13) Druck (19) Professionalität (10) Fairness (6) Temperament (14)

Profil

Trainerstil Demokratisch
Lizenz Kontinentale Pro
Entschlossenheit 9
Menschenführung 6
Motivation 7
Disziplin 11
Arbeitszufriedenheit
100%
Ermüdung
0%
Rolle Chefscout
Gehalt 74.9K p/W
Vertrag 14.03.2029

Leistung

Verhalten Gut
Trainingseffektivität
35%
Spielerentwicklung
30%
Verletzungsprävention
60%
Taktische Umsetzung
40%

Letzte Ereignisse

Nahm an einer Scouting-Besprechung teil jetzt
Nahm an einer Scouting-Besprechung teil jetzt
Empfahl ein Transferziel jetzt
Empfahl ein Transferziel jetzt
Nahm an einer Scouting-Besprechung teil jetzt
Nahm an einer Scouting-Besprechung teil jetzt
Empfahl ein Transferziel jetzt
Empfahl ein Transferziel jetzt

Aktuell beobachtet

185
Spieler Verein Status Fähigkeit Vertrauen Beobachtet Zuletzt beobachtet Letzte Stimme
Nicolas Sport Recife Aktiv 101 / 104 40% 3 12.07.2027 -
Maeson King Blackpool Verhandlung 109 / 128 40% 4 12.07.2027 -
Godwin Oham Warri Wolves Aktiv 87 / 84 40% 2 12.07.2027 -
Douglas Friedrich Portimonense Verloren 109 / 98 69% 1 21.06.2027 Befürworten
Miguel Figueiredo Benfica Aktiv 117 / 118 40% 1 21.06.2027 Mehr Infos nötig
Caio Vidal FC Copenhagen Verhandlung 128 / 129 63% 1 01.06.2027 Befürworten
Elijah Adebayo Luton Town Aktiv 127 / 117 40% 2 31.05.2027 -
Mathias Jørgensen Blackburn Rovers Aktiv 119 / 109 40% 1 31.05.2027 -
André Clovis Chaves Aktiv 130 / 121 40% 1 31.05.2027 -
Caleb Yirenkyi Coventry City Aktiv 129 / 143 40% 7 28.05.2027 -
Riquelme Thompson-Jones Shrewsbury Town Aktiv 108 / 120 40% 4 28.05.2027 -
Abraham Paintsil Hasaacas Aktiv 92 / 96 40% 3 28.05.2027 -
Daniel Kelly Derby County Aktiv 109 / 115 40% 1 23.05.2027 -
Daniel Banjaqui Wolverhampton Aktiv 118 / 121 40% 1 23.05.2027 -
Jaydee Canvot Liverpool Aktiv 139 / 131 40% 1 23.05.2027 -
Enzo Cardozo Virtus Entella Aktiv 111 / 126 40% 1 22.05.2027 -
Pietro Reggiori Pro Patria Aktiv 90 / 97 40% 3 21.05.2027 -
Christos Mouzakitis Hull City Verhandlung 126 / 131 40% 2 21.05.2027 -
Riley Owen Wycombe Wanderers Aktiv 97 / 120 40% 4 20.05.2027 -
Mohammed Wakaso Hasaacas Aktiv 90 / 108 40% 2 16.05.2027 -
Paulinho Fortaleza Aktiv 97 / 117 40% 1 16.05.2027 -
João Simões Sporting CP Verloren 129 / 141 40% 6 15.05.2027 -
Bastien Meupiyou Alverca Aktiv 126 / 117 40% 5 15.05.2027 -
Sam Curtis Swindon Town Aktiv 108 / 98 40% 3 13.05.2027 -
Tiago Freitas Benfica Aktiv 112 / 108 40% 2 13.05.2027 -
Gonçalo Oliveira Benfica Aktiv 105 / 112 40% 4 10.05.2027 -
Murilo Cruzeiro Aktiv 94 / 95 40% 1 10.05.2027 -
Lucas Bergvall Tottenham Aktiv 143 / 146 40% 1 10.05.2027 -
Leandro Martins Benfica Aktiv 90 / 103 40% 4 09.05.2027 -
Afonso Assis Moreirense Aktiv 115 / 128 40% 2 08.05.2027 -
Biel La Equidad Aktiv 119 / 130 40% 2 08.05.2027 -
Paulo Roberto Vitória Aktiv 97 / 110 40% 3 07.05.2027 -
Bakary Haïdara Hearts of Oak Aktiv 99 / 108 40% 3 07.05.2027 -
Gladson Sulemana Liberty Professionals Aktiv 83 / 110 40% 2 05.05.2027 -
Simone Kosijer Triestina Aktiv 97 / 102 40% 1 05.05.2027 -
Eduardo Felicíssimo Sporting CP Aktiv 105 / 109 67% 6 03.05.2027 Beobachten
Lucas Jetten Cambuur Aktiv 111 / 115 40% 5 03.05.2027 -
T-Jay Parfitt Cardiff City Aktiv 87 / 87 40% 1 30.04.2027 -
Toni Tamarit Alverca Aktiv 123 / 121 40% 3 29.04.2027 -
Kauã Moraes Cruzeiro Aktiv 124 / 129 40% 3 29.04.2027 -
Sascha Britschgi Catanzaro Aktiv 121 / 128 40% 1 29.04.2027 -
Vasco Santos Oliveirense Aktiv 92 / 81 40% 7 28.04.2027 -
Jofre Torrents Ajax Aktiv 117 / 122 40% 2 25.04.2027 -
Moncef Zekri Sporting CP Aktiv 101 / 107 67% 7 24.04.2027 Beobachten
Eddy Doué Rio Ave Aktiv 106 / 120 40% 1 24.04.2027 -
Leonardo Mendicino Bari Aktiv 120 / 131 40% 1 22.04.2027 -
João Teixeira Porto Aktiv 101 / 106 40% 3 20.04.2027 -
Jake Batty Bristol Rovers Aktiv 100 / 108 40% 2 19.04.2027 -
Joel McGregor Swindon Town Aktiv 89 / 95 40% 1 18.04.2027 -
Benedetti Palmeiras Aktiv 104 / 119 40% 2 11.04.2027 -
Jonathan Bland Barnsley Aktiv 101 / 113 40% 1 11.04.2027 -
Jacaré Corinthians Aktiv 96 / 92 40% 2 09.04.2027 -
Luis Eduardo Grêmio Aktiv 105 / 102 40% 1 26.03.2027 -
Edwin Asamoah Berekum Chelsea Aktiv 88 / 84 40% 2 24.03.2027 -
Martim Cunha Porto Aktiv 103 / 104 40% 2 24.03.2027 -
Breno Vereza Vasco da Gama Aktiv 83 / 87 40% 2 22.03.2027 -
Miguel Figueiredo Benfica Verloren 111 / 112 40% 2 21.03.2027 Mehr Infos nötig
Isac São Paulo Aktiv 92 / 111 40% 1 19.03.2027 -
Kauã Pascini Atlético Mineiro Aktiv 107 / 108 40% 2 18.03.2027 -
James Dornelly Peterborough United Aktiv 97 / 110 40% 1 17.03.2027 -
Surprise Manthosi Polokwane City Aktiv 96 / 101 40% 1 15.03.2027 -
Fabinho Fortaleza Aktiv 94 / 85 40% 1 12.03.2027 -
Emerson Buiu Vitória Aktiv 91 / 88 40% 1 12.03.2027 -
Davi Góes Juventude Aktiv 80 / 92 40% 1 10.03.2027 -
Nico O'Reilly Manchester City Aktiv 149 / 149 40% 1 09.03.2027 -
Bahia Juventude Aktiv 105 / 109 40% 1 08.03.2027 -
Florentino Luís Ipswich Town Aktiv 143 / 140 40% 6 12.02.2027 -
Anel Ahmedhodžić Burnley Aktiv 143 / 125 40% 1 12.02.2027 -
António Silva Bournemouth Aktiv 138 / 144 40% 1 12.02.2027 -
Christian Krasnodar Aktiv 147 / 150 40% 3 11.02.2027 -
Rúben Vinagre Legia Aktiv 113 / 96 40% 1 11.02.2027 -
Maicon Levski Aktiv 120 / 127 40% 1 10.02.2027 -
Dinis Pinto Moreirense Aktiv 121 / 119 40% 1 10.02.2027 -
Ethan Galbraith Swansea City Aktiv 135 / 128 40% 2 09.02.2027 -
Diogo Dalot Manchester United Aktiv 151 / 139 40% 5 09.02.2027 -
Harry Clarke Preston Aktiv 126 / 128 40% 1 09.02.2027 -
Rodrigo Pinheiro Famalicao Aktiv 138 / 131 40% 4 08.02.2027 -
Nuno Lima Alanyaspor Aktiv 121 / 138 40% 1 08.02.2027 -
Alex Scott Bournemouth Aktiv 146 / 161 40% 1 08.02.2027 -
Juan María Alcedo Torreense Aktiv 122 / 107 40% 3 07.02.2027 -
Romain Correia Maritimo Aktiv 115 / 107 40% 1 07.02.2027 -
Weverson Gil Vicente Aktiv 112 / 121 40% 1 07.02.2027 -
Welington Southampton Aktiv 134 / 118 40% 3 06.02.2027 -
Francisco Domingues Moreirense Aktiv 125 / 118 40% 1 06.02.2027 -
Facundo Cáseres Gil Vicente Aktiv 127 / 113 40% 1 05.02.2027 -
Tim Iroegbunam Hull City Aktiv 134 / 136 40% 1 05.02.2027 -
Tiago Araújo KAA Gent Aktiv 113 / 115 40% 7 04.02.2027 -
Beni Mukendi Vitoria Guimaraes Aktiv 133 / 135 40% 2 04.02.2027 -
Tiago Manso Kifisia Aktiv 120 / 118 40% 1 01.02.2027 -
Rodrigo Muniz Fulham Aktiv 141 / 148 40% 1 19.01.2027 -
Luther Tau SuperSport United Aktiv 117 / 118 40% 1 19.01.2027 -
Zinho Portimonense Aktiv 97 / 106 69% 1 18.01.2027 Befürworten
Lorougnon Gohi Académico de Viseu Aktiv 116 / 107 40% 2 11.01.2027 -
Emile Smith Rowe Fulham Aktiv 150 / 142 40% 1 11.01.2027 -
Thulani Billiat Utrecht Verhandlung 136 / 136 61% 1 01.01.2027 Befürworten
Amar Memić Juventude Verhandlung 127 / 128 62% 1 01.01.2027 Befürworten
Mao Hosoya Manchester City Verhandlung 134 / 135 67% 1 01.01.2027 Befürworten
De Lucca Adana Demirspor Aktiv 124 / 125 40% 3 31.12.2026 -
Lucas Barbosa Bragantino Aktiv 124 / 135 40% 1 31.12.2026 -
Nuno Santos Mamelodi Sundowns Aktiv 120 / 106 40% 1 30.12.2026 -
Kevin Fulham Aktiv 152 / 143 40% 5 28.12.2026 -
Vinícius Lopes Santa Clara Aktiv 127 / 127 40% 1 28.12.2026 -
Luis Quintero Torreense Aktiv 128 / 135 40% 2 22.12.2026 -
Santi García Gil Vicente Aktiv 124 / 129 40% 3 22.12.2026 -
Jeon Jin-Woo Sheffield Wednesday Aktiv 127 / 128 40% 1 22.12.2026 -
Gonçalo Franco Swansea City Aktiv 122 / 121 40% 4 21.12.2026 -
Naïs Djouahra Arouca Aktiv 122 / 134 40% 2 21.12.2026 -
Mduduzi Shabalala Kaizer Chiefs Aktiv 104 / 111 40% 2 19.12.2026 -
Reda Khadra Qarabag Aktiv 123 / 118 40% 1 19.12.2026 -
Daniel Júnior Nacional Aktiv 116 / 105 40% 1 18.12.2026 -
Tommy Conway Middlesbrough Aktiv 128 / 133 40% 2 17.12.2026 -
Pau Víctor Estrela da Amadora Aktiv 144 / 150 40% 1 17.12.2026 -
Figueiredo Alverca Aktiv 126 / 137 40% 3 16.12.2026 -
Julio Enciso Ipswich Town Aktiv 151 / 143 40% 3 15.12.2026 -
Finn Azaz Southampton Aktiv 130 / 129 40% 1 15.12.2026 -
Enzo Loiodice KAA Gent Aktiv 138 / 138 40% 5 14.12.2026 -
Miguel Reisinho Moreirense Aktiv 124 / 119 40% 1 14.12.2026 -
Paulo Moreira Aston Villa Aktiv 120 / 123 40% 3 13.12.2026 -
Thierry Rendall Correia Venezia Aktiv 146 / 150 40% 2 13.12.2026 -
Nabil Touaizi Alverca Aktiv 115 / 113 40% 2 12.12.2026 -
Martins Júnior Zira Aktiv 103 / 121 40% 1 12.12.2026 -
Manu Pozo Torreense Aktiv 126 / 129 40% 2 11.12.2026 -
Ronald Swansea City Aktiv 127 / 125 40% 1 11.12.2026 -
Gustavo Silva Vitoria Guimaraes Aktiv 130 / 118 40% 1 11.12.2026 -
Savinho Tottenham Aktiv 155 / 150 40% 3 08.12.2026 -
Enzo Le Fée Sunderland Aktiv 133 / 135 40% 1 07.12.2026 -
Tiago Dantas HNK Rijeka Aktiv 116 / 129 40% 4 30.11.2026 -
Noah Sadiki Sunderland Aktiv 139 / 151 40% 1 30.11.2026 -
Bernardo Schappo Estrela da Amadora Aktiv 120 / 108 40% 1 29.11.2026 -
Valery Académico de Viseu Aktiv 128 / 127 40% 1 29.11.2026 -
Xavi Simons Tottenham Aktiv 161 / 158 40% 1 28.11.2026 -
Yanis Begraoui Estoril Praia Aktiv 140 / 143 40% 2 27.11.2026 -
David Da Costa Portland Timbers Aktiv 138 / 110 40% 4 26.11.2026 -
Alex Luna Instituto Aktiv 132 / 124 40% 1 25.11.2026 -
Loum Tchaouna Coventry City Aktiv 135 / 130 40% 1 25.11.2026 -
Tyler Adams Bournemouth Aktiv 146 / 164 40% 1 25.11.2026 -
Roni AVS Aktiv 117 / 124 40% 2 24.11.2026 -
Helinho Toluca Aktiv 130 / 119 40% 3 24.11.2026 -
Carlos Augusto Inter Aktiv 150 / 148 40% 2 24.11.2026 -
Filipe Relvas AEK Aktiv 131 / 127 40% 1 24.11.2026 -
Aldair Faustino Levski Aktiv 127 / 103 40% 1 22.11.2026 -
Tiago Almeida Sumgayit Aktiv 102 / 130 40% 1 22.11.2026 -
Roberto Fernández Braga Aktiv 149 / 132 40% 2 14.11.2026 Mehr Infos nötig
Francisco Moura Penafiel Aktiv 138 / 123 40% 1 13.11.2026 -
Enzo Barrenechea Burnley Aktiv 145 / 141 40% 1 12.11.2026 -
Ricard Sánchez Estoril Praia Aktiv 119 / 110 40% 1 11.11.2026 -
Mateus Fernandes Tottenham Aktiv 146 / 145 40% 1 11.11.2026 -
Carlos Forbs Club Brugge Aktiv 127 / 121 40% 3 07.11.2026 -
Alan Lescano Argentinos Juniors Aktiv 136 / 139 40% 1 07.11.2026 -
Ole Pohlmann Rio Ave Aktiv 130 / 113 40% 1 04.11.2026 -
Noni Madueke Arsenal Aktiv 154 / 158 40% 1 03.11.2026 -
Carlos Álvarez Club America Aktiv 138 / 139 40% 1 02.11.2026 -
Jacob Greaves Ipswich Town Aktiv 133 / 129 40% 1 24.10.2026 -
Leonardo Lopes KAA Gent Aktiv 115 / 118 40% 1 23.10.2026 -
Tiago Djaló Besiktas Aktiv 140 / 113 40% 1 22.10.2026 -
Tyrell Malacia Derby County Aktiv 134 / 130 40% 1 21.10.2026 -
Gedson Fernandes Spartak Moscow Aktiv 140 / 148 40% 1 21.10.2026 -
Bright Arrey-Mbi Braga Aktiv 132 / 121 40% 3 20.10.2026 -
Rodrigo Conceição Jagiellonia Aktiv 128 / 108 40% 2 20.10.2026 -
Hugo Pérez Torreense Aktiv 122 / 120 40% 1 18.10.2026 -
Gustaf Lagerbielke Braga Aktiv 134 / 134 40% 1 17.10.2026 -
Pedro Neto Chelsea Aktiv 142 / 132 40% 2 14.10.2026 -
André Luiz Sporting Kansas City Aktiv 129 / 119 40% 2 13.10.2026 -
Talles Magno New York City Aktiv 134 / 139 40% 1 11.10.2026 -
Luís Henrique Inter Aktiv 131 / 131 40% 1 09.10.2026 -
Dávid Strelec Middlesbrough Aktiv 138 / 144 40% 1 08.10.2026 -
Gabriel Pirani San Diego Football Club Aktiv 129 / 125 40% 1 07.10.2026 -
Antony Portland Timbers Aktiv 135 / 141 40% 2 05.10.2026 -
Abraham Marcus Estrela da Amadora Aktiv 121 / 135 40% 2 05.10.2026 -
Diego Costa Krasnodar Aktiv 148 / 118 40% 1 22.09.2026 -
Joaquim Tigres Aktiv 129 / 122 40% 1 20.09.2026 -
Rômulo Tigres Aktiv 113 / 102 40% 1 20.09.2026 -
Juan Pablo Freytes Fluminense Aktiv 131 / 120 40% 1 20.09.2026 -
Luan Patrick Estrela da Amadora Aktiv 125 / 124 40% 1 19.09.2026 -
João Muniz Sporting CP Aktiv 110 / 125 67% 1 19.09.2026 Befürworten
Toti Wolverhampton Aktiv 128 / 132 40% 1 19.09.2026 -
Tomás Händel Crvena Zvezda Aktiv 117 / 134 40% 1 17.09.2026 -
Anton Stach Leeds United Aktiv 147 / 149 40% 1 16.09.2026 -
Telasco Segovia Inter Miami CF Aktiv 138 / 144 40% 1 15.09.2026 -
Jean-Baptiste Gorby Braga Aktiv 130 / 122 40% 1 13.09.2026 -
Johan Martínez Deportivo Cali Aktiv 120 / 114 40% 1 13.09.2026 -
Neco Williams Nottingham Forest Aktiv 148 / 142 40% 1 13.09.2026 -
Víctor Gómez Braga Aktiv 131 / 151 40% 1 08.09.2026 Mehr Infos nötig
Joaquín Pereyra Minnesota United FC Aktiv 122 / 147 40% 1 08.09.2026 -
Guilherme Moura Fortaleza Aktiv 75 / 80 40% 1 01.08.2026 -